Terminal Aerodrome Forecast
Issued by NWS Wilmington, NC

Home | Current Version | Previous Version | Text Only | Print | Product List | Glossary On
Versions: 1 2 3 4 5 6 7 8 9 10 11 12 13 14 15 16 17 18 19 20 21 22
000
FTUS42 KILM 181700
TAFILM
TAF
KILM 181739Z 1818/1918 06005KT P6SM VCSH SCT035 BKN070
     FM190300 04004KT P6SM BKN025 BKN060
     FM191400 06009KT P6SM VCSH BKN030 OVC060=

USA.gov is the U.S. government's official web portal to all federal, state and local government web resources and services.